• Join FlightAware (Why Join?)
  • Login
  • US Flag 
09:40PM EDT


 

Airport Tracker/Info


-or-


 

Live Flight TrackerFlight Track Log ✈ N125TV ✈ 23-Jun-2013 ✈ KOLV - KCQF

Flight Track Log - Related Links

Times and Time Zones

All times are in EDT time to prevent confusion due to time zone crossing. See the N125TV flight status page for this flight to view local times or setup timezone preferences in your user account.

Time Position Orientation Groundspeed Altitude Reporting Facility
EDT Latitude Longitude Course Direction KTS MPH feet Rate Location/Type
03:04PM 34.9500 -89.7667 150° Southeast 129 148 1,200  Level KMEM
03:05PM 34.9500 -89.7000 90° East 157 181 2,200 720 Climbing KMEM
03:06PM 34.9167 -89.6833 158° South 162 186 2,800 420 Climbing KMEM
03:07PM 34.8667 -89.7000 195° South 165 190 3,000 480 Climbing KMEM
03:08PM 34.8333 -89.7333 219° Southwest 157 181 3,800 720 Climbing KMEM
03:09PM 34.8000 -89.7667 219° Southwest 151 174 4,600 720 Climbing KMEM
03:10PM 34.7833 -89.8167 248° West 153 176 5,300 660 Climbing KMEM
03:11PM 34.7667 -89.8500 239° Southwest 154 177 5,900 660 Climbing KMEM
03:12PM 34.7333 -89.9000 231° Southwest 156 180 6,600 660 Climbing KMEM
03:13PM 34.7167 -89.9333 239° Southwest 155 178 7,200 660 Climbing KMEM
03:14PM 34.6833 -89.9833 231° Southwest 157 181 8,000 720 Climbing KMEM
03:15PM 34.6500 -90.0000 202° Southwest 156 180 8,700 420 Climbing KMEM
03:16PM 34.5917 -90.0317 204° Southwest 169 194 9,000 120 Climbing Memphis Center
03:17PM 34.5439 -90.0494 197° South 175 201 9,000  Level Memphis Center
03:18PM 34.4958 -90.0775 206° Southwest 191 220 9,000  Level Memphis Center
03:19PM 34.4500 -90.1003 202° Southwest 191 220 9,000  Level Memphis Center
03:20PM 34.3958 -90.0903 171° South 183 211 9,000  Level Memphis Center
03:21PM 34.3517 -90.0553 147° Southeast 175 201 9,000  Level Memphis Center
03:22PM 34.3058 -90.0278 154° Southeast 188 216 9,000  Level Memphis Center
03:23PM 34.2597 -90.0028 156° South 181 208 9,000  Level Memphis Center
03:24PM 34.2139 -89.9753 154° Southeast 181 208 9,000  Level Memphis Center
03:25PM 34.1700 -89.9481 153° Southeast 176 203 9,000  Level Memphis Center
03:26PM 34.1219 -89.9206 155° Southeast 176 203 9,000  Level Memphis Center
03:27PM 34.0781 -89.8958 155° Southeast 182 209 9,000  Level Memphis Center
03:28PM 34.0319 -89.8683 154° Southeast 182 209 9,000  Level Memphis Center
03:29PM 33.9858 -89.8411 154° Southeast 182 209 9,000  Level Memphis Center
03:30PM 33.9397 -89.8139 154° Southeast 182 209 9,000  Level Memphis Center
03:31PM 33.8981 -89.7917 156° South 177 204 9,000  Level Memphis Center
03:32PM 33.8519 -89.7619 152° Southeast 183 211 9,000  Level Memphis Center
03:33PM 33.8017 -89.7347 156° South 183 211 9,000  Level Memphis Center
03:34PM 33.7556 -89.7100 156° South 183 211 9,000  Level Memphis Center
03:35PM 33.7075 -89.6806 153° Southeast 188 216 9,000  Level Memphis Center
03:36PM 33.6636 -89.6558 155° Southeast 188 216 9,000  Level Memphis Center
03:37PM 33.6217 -89.6314 154° Southeast 193 222 9,000  Level Memphis Center
03:38PM 33.5756 -89.6042 154° Southeast 193 222 9,000  Level Memphis Center
03:39PM 33.5294 -89.5772 154° Southeast 193 222 9,000  Level Memphis Center
03:40PM 33.4833 -89.5503 154° Southeast 193 222 9,000  Level Memphis Center
03:41PM 33.4372 -89.5233 154° Southeast 193 222 9,000  Level Memphis Center
03:42PM 33.3911 -89.4964 154° Southeast 193 222 9,000  Level Memphis Center
03:43PM 33.3450 -89.4719 156° South 188 216 9,000  Level Memphis Center
03:44PM 33.3011 -89.4450 153° Southeast 188 216 9,000  Level Memphis Center
03:45PM 33.2528 -89.4183 155° Southeast 188 216 9,000  Level Memphis Center
03:46PM 33.2089 -89.3914 153° Southeast 188 216 9,000  Level Memphis Center
03:47PM 33.1628 -89.3669 156° South 183 211 9,000 -60 Level Memphis Center
03:48PM 33.1167 -89.3428 156° South 183 211 8,900  Descending Memphis Center
03:49PM 33.0703 -89.3136 152° Southeast 183 211 9,000  Climbing Memphis Center
03:50PM 33.0242 -89.2894 156° South 183 211 9,000  Level Memphis Center
03:51PM 32.9803 -89.2628 153° Southeast 183 211 9,000  Level Memphis Center
03:52PM 32.9342 -89.2383 156° South 183 211 9,000  Level Memphis Center
03:53PM 32.8900 -89.2119 153° Southeast 183 211 9,000  Level Memphis Center
03:54PM 32.8439 -89.1853 154° Southeast 183 211 9,000  Level Memphis Center
03:55PM 32.7978 -89.1611 156° South 178 205 9,000  Level Memphis Center
03:56PM 32.7556 -89.1294 148° Southeast 178 205 9,000  Level Memphis Center
03:57PM 32.7136 -89.0956 146° Southeast 178 205 9,000  Level Memphis Center
03:58PM 32.6694 -89.0692 153° Southeast 183 211 9,000 -60 Level Memphis Center
03:59PM 32.6253 -89.0375 149° Southeast 183 211 8,900  Descending Memphis Center
04:00PM 32.5831 -89.0111 152° Southeast 178 205 9,000  Climbing Memphis Center
04:01PM 32.5431 -88.9747 143° Southeast 178 205 9,000  Level Memphis Center
04:02PM 32.5072 -88.9286 133° Southeast 184 212 9,000  Level Memphis Center
04:03PM 32.4567 -88.9122 165° South 184 212 9,000  Level Memphis Center
04:04PM 32.4128 -88.8981 165° South 171 197 9,000  Level Memphis Center
04:05PM 32.3586 -88.9014 183° South 171 197 9,000  Level Memphis Center
04:06PM 32.3122 -88.8750 154° Southeast 171 197 9,000  Level Memphis Center
04:07PM 32.2681 -88.8439 149° Southeast 176 203 9,000  Level Memphis Center
04:08PM 32.2239 -88.8200 155° Southeast 176 203 9,000  Level Memphis Center
04:09PM 32.1797 -88.7939 153° Southeast 176 203 9,000  Level Memphis Center
04:10PM 32.1336 -88.7750 161° South 176 203 9,000  Level Memphis Center
04:11PM 32.0872 -88.7464 152° Southeast 176 203 9,000  Level Memphis Center
04:12PM 32.0389 -88.7203 155° Southeast 181 208 9,000  Level Memphis Center
04:13PM 31.9928 -88.6992 159° South 181 208 9,000  Level Memphis Center
04:14PM 31.9486 -88.6731 153° Southeast 176 203 9,000  Level Memphis Center
04:15PM 31.9044 -88.6517 158° South 184 212 9,000  Level Memphis Center
04:16PM 31.8581 -88.6258 155° Southeast 184 212 9,000  Level Memphis Center
04:17PM 31.8119 -88.6022 156° South 184 212 9,000  Level Memphis Center
04:18PM 31.7697 -88.5664 144° Southeast 184 212 9,000 -300 Level Memphis Center
04:19PM 31.7397 -88.5181 126° Southeast 184 212 8,500 -780 Descending Memphis Center
04:21PM 31.6872 -88.4569 135° Southeast 195 224 7,200 -900 Descending Houston Center
04:22PM 31.6597 -88.4058 122° Southeast 188 216 6,500 -780 Descending Houston Center
04:23PM 31.6294 -88.3547 125° Southeast 189 217 5,600 -600 Descending Houston Center
04:24PM 31.5889 -88.3183 143° Southeast 185 213 5,300 -300 Descending Houston Center
04:25PM 31.5419 -88.2767 143° Southeast 179 206 5,000 -180 Descending Houston Center
04:26PM 31.5011 -88.2453 147° Southeast 178 205 5,000  Level Houston Center
04:27PM 31.4569 -88.2203 154° Southeast 177 204 5,000  Level Houston Center
04:28PM 31.4081 -88.2031 163° South 182 209 5,000  Level Houston Center
04:29PM 31.3586 -88.1917 169° South 182 209 5,000  Level Houston Center
04:30PM 31.3094 -88.1742 163° South 183 211 5,000  Level Houston Center
04:31PM 31.2619 -88.1564 162° South 180 207 5,000  Level Houston Center
04:32PM 31.2053 -88.1358 163° South 178 205 5,000  Level Houston Center
04:34PM 31.1075 -88.1017 163° South 181 208 5,000  Level Houston Center
04:35PM 31.0583 -88.0842 163° South 183 211 5,000  Level Houston Center
04:36PM 31.0089 -88.0669 163° South 183 211 5,000  Level Houston Center
04:37PM 30.9606 -88.0508 164° South 180 207 5,000  Level Houston Center
04:38PM 30.9125 -88.0333 163° South 180 207 5,000 -480 Level Houston Center
04:39PM 30.8514 -88.0117 163° South 185 213 4,000 -660 Descending Houston Center
04:40PM 30.8028 -87.9942 163° South 186 214 3,700 -540 Descending Houston Center
04:41PM 30.7661 -87.9644 145° Southeast 169 194 3,000 -360 Descending Houston Center
04:42PM 30.7292 -87.9353 146° Southeast 164 189 3,000  Level Houston Center
04:43PM 30.6942 -87.9164 155° Southeast 156 180 3,000 -60 Level Houston Center
04:44PM 30.6608 -87.9031 161° South 137 158 2,900 -300 Descending Houston Center
04:45PM 30.6133 -87.8819 159° South 143 165 2,400 -480 Descending Houston Center
04:46PM 30.5778 -87.8553 147° Southeast 152 175 2,000 -420 Descending Houston Center